createdAt,value
2022-10-05T00:01:10.779Z,98315.76
2022-10-05T00:03:41.138Z,98319.65
2022-10-05T00:06:11.979Z,98325.05
2022-10-05T00:08:42.677Z,98325.61
2022-10-05T00:11:15.228Z,98326.86
2022-10-05T00:13:44.780Z,98327.45
2022-10-05T00:16:21.924Z,98334.02
2022-10-05T00:18:54.615Z,98331.43
2022-10-05T00:21:26.333Z,98331.17
2022-10-05T00:23:57.951Z,98331.39
2022-10-05T00:26:33.161Z,98331.13
2022-10-05T00:29:07.401Z,98328.95
2022-10-05T00:31:37.223Z,98328.52
2022-10-05T00:34:12.433Z,98328.23
2022-10-05T00:36:42.474Z,98325.71
2022-10-05T00:39:11.622Z,98326.23
2022-10-05T00:41:43.886Z,98327.39
2022-10-05T00:44:14.914Z,98323.24
2022-10-05T00:47:01.710Z,98324.88
2022-10-05T00:49:52.826Z,98326.02
2022-10-05T00:52:27.009Z,98327.30
2022-10-05T00:55:03.806Z,98330.23
2022-10-05T00:57:41.224Z,98330.98
2022-10-05T01:00:16.441Z,98333.67
2022-10-05T01:03:05.970Z,98338.43
2022-10-05T01:05:51.430Z,98337.89
2022-10-05T01:09:09.221Z,98341.90
2022-10-05T01:11:52.652Z,98343.80
2022-10-05T01:14:26.365Z,98345.75
2022-10-05T01:17:20.344Z,98347.89
2022-10-05T01:20:11.289Z,98350.76
2022-10-05T01:23:14.871Z,98354.30
2022-10-05T01:25:43.425Z,98359.52
2022-10-05T01:28:57.669Z,98365.73
2022-10-05T01:31:42.826Z,98366.69
2022-10-05T01:34:37.202Z,98374.83
2022-10-05T01:37:23.354Z,98380.71
2022-10-05T01:40:00.929Z,98381.90
2022-10-05T01:42:52.390Z,98385.55
2022-10-05T01:45:31.107Z,98385.20
2022-10-05T01:48:15.032Z,98386.56
2022-10-05T01:51:04.344Z,98392.02
2022-10-05T01:53:46.295Z,98394.89
2022-10-05T01:56:17.712Z,98392.95
2022-10-05T01:58:53.906Z,98391.55
2022-10-05T02:01:31.530Z,98391.47
2022-10-05T02:04:17.682Z,98393.35
2022-10-05T02:06:55.369Z,98391.79
2022-10-05T02:09:33.301Z,98383.12
2022-10-05T02:12:15.598Z,98379.00
2022-10-05T02:14:51.110Z,98373.27
2022-10-05T02:17:34.283Z,98374.73
2022-10-05T02:20:11.422Z,98377.67
2022-10-05T02:22:52.528Z,98379.69
2022-10-05T02:25:27.239Z,98383.77
2022-10-05T02:28:02.843Z,98384.86
2022-10-05T02:30:38.672Z,98384.27
2022-10-05T02:33:16.838Z,98389.41
2022-10-05T02:35:47.334Z,98393.33
2022-10-05T02:38:45.273Z,98394.84
2022-10-05T02:41:32.237Z,98392.59
2022-10-05T02:44:33.815Z,98391.88
2022-10-05T02:47:25.183Z,98392.48
2022-10-05T02:50:11.538Z,98400.27
2022-10-05T02:53:21.158Z,98406.42
2022-10-05T02:55:55.181Z,98408.09
2022-10-05T02:58:28.623Z,98409.39
2022-10-05T03:01:13.590Z,98417.26
2022-10-05T03:03:50.495Z,98418.86
2022-10-05T03:06:36.072Z,98421.35
2022-10-05T03:09:07.153Z,98424.36
2022-10-05T03:12:02.565Z,98414.89
2022-10-05T03:14:57.051Z,98417.88
2022-10-05T03:17:38.228Z,98420.61
2022-10-05T03:20:19.569Z,98421.40
2022-10-05T03:22:53.217Z,98420.00
2022-10-05T03:25:36.861Z,98424.55
2022-10-05T03:28:19.212Z,98427.86
2022-10-05T03:31:22.316Z,98426.50
2022-10-05T03:34:12.049Z,98432.69
2022-10-05T03:36:52.490Z,98437.85
2022-10-05T03:39:47.999Z,98436.77
2022-10-05T03:42:22.642Z,98437.59
2022-10-05T03:45:18.915Z,98436.36
2022-10-05T03:48:08.358Z,98435.02
2022-10-05T03:50:45.705Z,98440.81
2022-10-05T03:53:21.893Z,98439.75
2022-10-05T03:56:18.337Z,98443.16
2022-10-05T03:58:54.412Z,98445.38
2022-10-05T04:01:51.953Z,98452.23
2022-10-05T04:04:33.614Z,98457.60
2022-10-05T04:07:02.249Z,98463.42
2022-10-05T04:09:36.374Z,98466.12
2022-10-05T04:12:16.276Z,98467.92
2022-10-05T04:14:49.211Z,98469.62
2022-10-05T04:17:23.448Z,98475.08
2022-10-05T04:20:17.563Z,98474.36
2022-10-05T04:23:27.082Z,98478.08
2022-10-05T04:26:02.401Z,98479.18
2022-10-05T04:28:50.374Z,98482.17
2022-10-05T04:31:35.991Z,98485.20
2022-10-05T04:34:23.333Z,98487.64
2022-10-05T04:37:03.022Z,98491.57
2022-10-05T04:40:10.205Z,98498.57
2022-10-05T04:42:50.687Z,98502.65
2022-10-05T04:45:21.547Z,98505.18
2022-10-05T04:48:13.211Z,98505.52
2022-10-05T04:50:47.804Z,98505.35
2022-10-05T04:53:47.881Z,98511.96
2022-10-05T04:56:20.809Z,98516.30
2022-10-05T04:59:17.592Z,98524.57
2022-10-05T05:02:03.254Z,98528.16
2022-10-05T05:04:52.316Z,98522.43
2022-10-05T05:07:39.553Z,98525.93
2022-10-05T05:10:13.614Z,98528.71
2022-10-05T05:12:49.942Z,98534.42
2022-10-05T05:15:46.915Z,98538.18
2022-10-05T05:18:39.033Z,98541.14
2022-10-05T05:21:22.050Z,98542.23
2022-10-05T05:24:13.772Z,98544.33
2022-10-05T05:26:59.182Z,98547.58
2022-10-05T05:29:55.895Z,98545.73
2022-10-05T05:32:42.593Z,98547.63
2022-10-05T05:35:38.224Z,98545.09
2022-10-05T05:38:36.695Z,98552.32
2022-10-05T05:41:10.700Z,98553.38
2022-10-05T05:44:03.262Z,98556.57
2022-10-05T05:47:02.302Z,98553.00
2022-10-05T05:49:51.065Z,98555.30
2022-10-05T05:52:34.323Z,98558.54
2022-10-05T05:55:20.595Z,98561.73
2022-10-05T05:57:57.294Z,98567.40
2022-10-05T06:00:31.201Z,98571.42
2022-10-05T06:03:22.002Z,98579.30
2022-10-05T06:06:04.639Z,98589.45
2022-10-05T06:08:44.369Z,98591.14
2022-10-05T06:12:00.463Z,98597.41
2022-10-05T06:14:30.272Z,98600.23
2022-10-05T06:17:02.951Z,98604.17
2022-10-05T06:19:34.487Z,98603.26
2022-10-05T06:22:24.487Z,98604.95
2022-10-05T06:24:57.978Z,98610.37
2022-10-05T06:27:34.046Z,98608.27
2022-10-05T06:30:15.096Z,98610.84
2022-10-05T06:32:52.202Z,98613.12
2022-10-05T06:35:39.638Z,98614.14
2022-10-05T06:38:35.620Z,98622.36
2022-10-05T06:41:26.905Z,98625.77
2022-10-05T06:44:00.391Z,98630.60
2022-10-05T06:47:04.078Z,98634.69
2022-10-05T06:49:54.604Z,98639.88
2022-10-05T06:52:51.461Z,98645.13
2022-10-05T06:55:34.337Z,98648.09
2022-10-05T06:58:20.617Z,98645.31
2022-10-05T07:00:47.796Z,98650.18
2022-10-05T07:03:25.477Z,98654.52
2022-10-05T07:06:06.262Z,98652.77
2022-10-05T07:08:54.511Z,98653.85
2022-10-05T07:11:34.849Z,98652.48
2022-10-05T07:14:14.461Z,98654.03
2022-10-05T07:17:09.391Z,98654.60
2022-10-05T07:20:15.765Z,98656.63
2022-10-05T07:23:02.766Z,98659.56
2022-10-05T07:25:40.777Z,98662.37
2022-10-05T07:28:23.309Z,98666.31
2022-10-05T07:30:56.352Z,98668.99
2022-10-05T07:33:41.876Z,98670.45
2022-10-05T07:36:53.795Z,98676.38
2022-10-05T07:39:59.075Z,98682.21
2022-10-05T07:42:52.125Z,98681.41
2022-10-05T07:45:57.385Z,98672.92
2022-10-05T07:48:32.640Z,98677.72
2022-10-05T07:51:21.191Z,98677.86
2022-10-05T07:54:09.842Z,98676.52
2022-10-05T07:56:48.088Z,98679.59
2022-10-05T07:59:29.745Z,98677.16
2022-10-05T08:02:07.149Z,98677.58
2022-10-05T08:04:45.828Z,98674.16
2022-10-05T08:07:17.851Z,98670.39
2022-10-05T08:10:00.030Z,98671.66
2022-10-05T08:13:04.722Z,98665.60
2022-10-05T08:15:39.122Z,98662.30
2022-10-05T08:18:16.904Z,98665.75
2022-10-05T08:20:51.735Z,98668.64
2022-10-05T08:23:38.264Z,98671.71
2022-10-05T08:26:24.296Z,98659.40
2022-10-05T08:28:58.617Z,98649.90
2022-10-05T08:31:32.191Z,98651.56
2022-10-05T08:34:08.938Z,98656.27
2022-10-05T08:36:39.704Z,98651.51
2022-10-05T08:39:15.634Z,98657.20
2022-10-05T08:42:07.095Z,98664.05
2022-10-05T08:44:40.184Z,98663.42
2022-10-05T08:47:23.101Z,98655.79
2022-10-05T08:50:24.893Z,98656.91
2022-10-05T08:53:19.680Z,98650.87
2022-10-05T08:56:02.445Z,98648.44
2022-10-05T08:58:47.545Z,98650.34
2022-10-05T09:01:26.930Z,98658.90
2022-10-05T09:04:21.413Z,98670.17
2022-10-05T09:07:00.785Z,98672.11
2022-10-05T09:09:37.997Z,98678.42
2022-10-05T09:12:37.424Z,98678.30
2022-10-05T09:15:26.234Z,98691.24
2022-10-05T09:18:31.089Z,98691.51
2022-10-05T09:21:43.568Z,98701.74
2022-10-05T09:24:27.679Z,98703.90
2022-10-05T09:27:16.361Z,98703.11
2022-10-05T09:30:14.478Z,98712.29
2022-10-05T09:33:09.993Z,98712.73
2022-10-05T09:36:04.995Z,98711.21
2022-10-05T09:38:32.106Z,98712.75
2022-10-05T09:41:20.835Z,98707.96
2022-10-05T09:44:00.037Z,98709.04
2022-10-05T09:46:54.927Z,98710.73
2022-10-05T09:49:28.330Z,98710.91
2022-10-05T09:51:59.451Z,98706.35
2022-10-05T09:54:51.612Z,98705.14
2022-10-05T09:57:34.185Z,98703.08
2022-10-05T10:00:23.842Z,98702.00
2022-10-05T10:03:17.932Z,98696.52
2022-10-05T10:06:29.874Z,98699.38
2022-10-05T10:09:15.380Z,98697.59
2022-10-05T10:12:05.019Z,98687.04
2022-10-05T10:14:38.793Z,98686.39
2022-10-05T10:17:43.603Z,98688.81
2022-10-05T10:20:26.077Z,98686.25
2022-10-05T10:23:11.145Z,98686.71
2022-10-05T10:25:48.021Z,98681.17
2022-10-05T10:28:21.694Z,98681.72
2022-10-05T10:31:13.400Z,98683.78
2022-10-05T10:34:00.036Z,98672.11
2022-10-05T10:36:51.431Z,98665.71
2022-10-05T10:39:53.899Z,98664.03
2022-10-05T10:42:41.294Z,98657.34
2022-10-05T10:45:14.205Z,98650.05
2022-10-05T10:47:51.543Z,98653.02
2022-10-05T10:50:44.400Z,98652.02
2022-10-05T10:53:48.749Z,98647.46
2022-10-05T10:56:46.514Z,98638.44
2022-10-05T10:59:55.721Z,98630.92
2022-10-05T11:02:27.313Z,98634.61
2022-10-05T11:05:01.197Z,98623.19
2022-10-05T11:07:49.428Z,98622.48
2022-10-05T11:10:25.678Z,98615.14
2022-10-05T11:13:06.970Z,98611.91
2022-10-05T11:15:56.955Z,98614.57
2022-10-05T11:18:26.708Z,98617.05
2022-10-05T11:21:36.406Z,98616.70
2022-10-05T11:24:15.041Z,98617.95
2022-10-05T11:27:15.609Z,98620.80
2022-10-05T11:29:42.713Z,98618.98
2022-10-05T11:32:24.661Z,98621.26
2022-10-05T11:35:29.250Z,98618.54
2022-10-05T11:38:30.341Z,98609.80
2022-10-05T11:41:03.310Z,98603.81
2022-10-05T11:44:07.323Z,98601.32
2022-10-05T11:47:11.924Z,98598.62
2022-10-05T11:49:51.142Z,98604.12
2022-10-05T11:52:21.571Z,98605.23
2022-10-05T11:55:17.149Z,98605.37
2022-10-05T11:57:56.008Z,98605.65
2022-10-05T12:00:25.104Z,98599.16
2022-10-05T12:03:29.478Z,98599.90
2022-10-05T12:06:16.644Z,98601.23
2022-10-05T12:08:56.221Z,98601.33
2022-10-05T12:11:29.112Z,98603.65
2022-10-05T12:14:19.870Z,98604.11
2022-10-05T12:16:58.901Z,98601.09
2022-10-05T12:19:33.618Z,98595.42
2022-10-05T12:22:15.559Z,98588.15
2022-10-05T12:25:14.007Z,98586.31
2022-10-05T12:27:45.834Z,98584.79
2022-10-05T12:30:29.457Z,98588.67
2022-10-05T12:33:16.546Z,98594.44
2022-10-05T12:36:02.823Z,98595.89
2022-10-05T12:38:54.291Z,98597.27
2022-10-05T12:41:37.019Z,98599.05
2022-10-05T12:44:31.544Z,98602.77
2022-10-05T12:47:01.482Z,98599.71
2022-10-05T12:49:51.903Z,98602.25
2022-10-05T12:52:36.382Z,98599.59
2022-10-05T12:55:10.268Z,98600.64
2022-10-05T12:57:37.798Z,98602.16
2022-10-05T13:00:19.069Z,98603.15
2022-10-05T13:02:57.671Z,98609.38
2022-10-05T13:05:37.114Z,98607.64
2022-10-05T13:08:18.825Z,98602.17
2022-10-05T13:10:47.882Z,98600.63
2022-10-05T13:13:27.373Z,98604.03
2022-10-05T13:16:04.362Z,98602.29
2022-10-05T13:19:06.172Z,98599.68
2022-10-05T13:22:01.483Z,98603.67
2022-10-05T13:24:42.633Z,98601.27
2022-10-05T13:27:27.426Z,98598.77
2022-10-05T13:30:00.973Z,98593.83
2022-10-05T13:32:39.404Z,98592.05
2022-10-05T13:35:31.474Z,98588.23
2022-10-05T13:38:16.554Z,98584.36
2022-10-05T13:40:53.420Z,98582.52
2022-10-05T13:44:00.925Z,98581.98
2022-10-05T13:46:46.136Z,98575.38
2022-10-05T13:49:13.344Z,98575.83
2022-10-05T13:51:52.217Z,98577.91
2022-10-05T13:54:36.413Z,98570.90
2022-10-05T13:57:35.006Z,98569.58
2022-10-05T14:00:27.034Z,98565.88
2022-10-05T14:03:00.251Z,98557.80
2022-10-05T14:05:30.445Z,98553.54
2022-10-05T14:08:16.336Z,98557.59
2022-10-05T14:10:46.842Z,98559.70
2022-10-05T14:13:19.760Z,98563.88
2022-10-05T14:16:01.468Z,98563.92
2022-10-05T14:18:32.762Z,98562.81
2022-10-05T14:21:08.228Z,98564.95
2022-10-05T14:23:35.992Z,98562.50
2022-10-05T14:26:16.821Z,98566.35
2022-10-05T14:29:00.294Z,98565.14
2022-10-05T14:31:36.512Z,98566.89
2022-10-05T14:34:34.494Z,98566.33
2022-10-05T14:37:17.824Z,98566.73
2022-10-05T14:39:48.388Z,98566.79
2022-10-05T14:42:28.818Z,98568.79
2022-10-05T14:45:11.566Z,98568.86
2022-10-05T14:47:52.524Z,98565.04
2022-10-05T14:50:29.329Z,98562.65
2022-10-05T14:53:13.854Z,98567.25
2022-10-05T14:56:00.483Z,98567.42
2022-10-05T14:58:27.664Z,98563.94
2022-10-05T15:01:02.481Z,98565.95
2022-10-05T15:04:17.219Z,98566.56
2022-10-05T15:07:04.230Z,98561.05
2022-10-05T15:09:50.182Z,98560.88
2022-10-05T15:12:35.749Z,98557.32
2022-10-05T15:15:12.494Z,98555.20
2022-10-05T15:17:52.089Z,98558.93
2022-10-05T15:20:44.974Z,98559.66
2022-10-05T15:23:47.174Z,98556.77
2022-10-05T15:26:36.236Z,98557.23
2022-10-05T15:29:41.722Z,98555.45
2022-10-05T15:32:23.958Z,98556.41
2022-10-05T15:35:09.641Z,98553.16
2022-10-05T15:37:43.291Z,98555.91
2022-10-05T15:40:23.133Z,98556.61
2022-10-05T15:42:54.973Z,98557.33
2022-10-05T15:45:33.501Z,98557.91
2022-10-05T15:48:21.866Z,98555.96
2022-10-05T15:50:56.445Z,98559.58
2022-10-05T15:53:32.959Z,98561.70
2022-10-05T15:56:15.264Z,98566.44
2022-10-05T15:58:42.541Z,98571.09
2022-10-05T16:01:18.291Z,98568.28
2022-10-05T16:03:56.729Z,98569.27
2022-10-05T16:07:06.531Z,98570.55
2022-10-05T16:09:33.934Z,98575.55
2022-10-05T16:12:18.159Z,98574.78
2022-10-05T16:14:47.854Z,98579.32
2022-10-05T16:17:53.654Z,98589.35
2022-10-05T16:20:29.808Z,98590.55
2022-10-05T16:23:34.129Z,98595.53
2022-10-05T16:26:16.170Z,98603.70
2022-10-05T16:28:46.493Z,98608.35
2022-10-05T16:31:36.906Z,98608.52
2022-10-05T16:34:31.190Z,98606.43
2022-10-05T16:37:24.658Z,98611.59
2022-10-05T16:39:58.114Z,98619.95
2022-10-05T16:42:28.011Z,98618.33
2022-10-05T16:45:44.395Z,98619.60
2022-10-05T16:48:25.511Z,98624.29
2022-10-05T16:51:16.091Z,98622.59
2022-10-05T16:53:59.317Z,98621.55
2022-10-05T16:56:57.332Z,98624.25
2022-10-05T16:59:46.097Z,98623.27
2022-10-05T17:02:33.462Z,98621.61
2022-10-05T17:05:19.732Z,98616.38
2022-10-05T17:07:56.286Z,98614.80
2022-10-05T17:10:33.418Z,98612.73
2022-10-05T17:13:11.219Z,98611.86
2022-10-05T17:16:00.371Z,98613.20
2022-10-05T17:19:05.157Z,98614.52
2022-10-05T17:22:02.718Z,98613.70
2022-10-05T17:24:50.105Z,98619.10
2022-10-05T17:27:20.714Z,98618.84
2022-10-05T17:29:52.028Z,98624.54
2022-10-05T17:32:19.036Z,98618.83
2022-10-05T17:35:01.039Z,98619.14
2022-10-05T17:37:39.321Z,98620.69
2022-10-05T17:40:29.451Z,98624.94
2022-10-05T17:42:57.751Z,98626.95
2022-10-05T17:45:33.757Z,98628.67
2022-10-05T17:48:30.670Z,98625.48
2022-10-05T17:51:16.184Z,98627.32
2022-10-05T17:54:01.746Z,98627.33
2022-10-05T17:56:42.128Z,98631.14
2022-10-05T17:59:11.749Z,98629.39
2022-10-05T18:01:40.326Z,98631.13
2022-10-05T18:04:13.333Z,98639.71
2022-10-05T18:06:52.329Z,98640.91
2022-10-05T18:09:22.560Z,98640.20
2022-10-05T18:12:17.350Z,98640.00
2022-10-05T18:14:58.874Z,98642.55
2022-10-05T18:17:50.914Z,98639.91
2022-10-05T18:20:21.969Z,98639.75
2022-10-05T18:22:52.565Z,98637.20
2022-10-05T18:25:43.729Z,98634.29
2022-10-05T18:28:28.351Z,98634.17
2022-10-05T18:31:15.868Z,98635.15
2022-10-05T18:34:10.549Z,98634.17
2022-10-05T18:37:34.698Z,98632.86
2022-10-05T18:40:20.851Z,98633.95
2022-10-05T18:43:02.657Z,98633.84
2022-10-05T18:45:51.090Z,98636.20
2022-10-05T18:48:59.511Z,98639.38
2022-10-05T18:51:46.366Z,98639.32
2022-10-05T18:54:43.079Z,98632.72
2022-10-05T18:57:34.744Z,98630.54
2022-10-05T19:00:13.768Z,98633.23
2022-10-05T19:02:48.261Z,98636.48
2022-10-05T19:05:47.424Z,98635.89
2022-10-05T19:08:33.742Z,98638.80
2022-10-05T19:11:29.990Z,98638.25
2022-10-05T19:14:05.266Z,98637.87
2022-10-05T19:16:45.812Z,98643.03
2022-10-05T19:19:52.914Z,98645.26
2022-10-05T19:22:28.670Z,98647.23
2022-10-05T19:25:28.172Z,98652.36
2022-10-05T19:28:16.851Z,98654.52
2022-10-05T19:30:51.385Z,98658.13
2022-10-05T19:33:31.010Z,98658.31
2022-10-05T19:36:16.015Z,98656.14
2022-10-05T19:39:07.867Z,98660.65
2022-10-05T19:42:09.027Z,98665.83
2022-10-05T19:44:45.150Z,98668.05
2022-10-05T19:47:41.264Z,98669.15
2022-10-05T19:50:23.837Z,98669.06
2022-10-05T19:53:00.916Z,98673.86
2022-10-05T19:55:35.580Z,98674.66
2022-10-05T19:58:26.181Z,98674.39
2022-10-05T20:01:06.406Z,98676.10
2022-10-05T20:03:37.532Z,98678.61
2022-10-05T20:06:10.119Z,98676.77
2022-10-05T20:08:43.371Z,98678.73
2022-10-05T20:11:14.465Z,98679.65
2022-10-05T20:13:47.648Z,98674.86
2022-10-05T20:16:33.459Z,98678.71
2022-10-05T20:19:36.018Z,98676.66
2022-10-05T20:22:40.030Z,98674.98
2022-10-05T20:25:19.468Z,98674.99
2022-10-05T20:27:46.715Z,98674.72
2022-10-05T20:30:20.136Z,98675.46
2022-10-05T20:32:49.104Z,98677.43
2022-10-05T20:35:23.190Z,98678.72
2022-10-05T20:37:50.465Z,98677.48
2022-10-05T20:40:19.357Z,98675.73
2022-10-05T20:42:47.642Z,98675.13
2022-10-05T20:45:15.199Z,98671.07
2022-10-05T20:47:42.755Z,98668.59
2022-10-05T20:50:10.959Z,98665.27
2022-10-05T20:52:38.570Z,98666.05
2022-10-05T20:55:08.524Z,98665.47
2022-10-05T20:57:41.185Z,98660.27
2022-10-05T21:00:11.033Z,98665.17
2022-10-05T21:02:39.275Z,98662.84
2022-10-05T21:05:07.101Z,98662.17
2022-10-05T21:07:34.904Z,98665.77
2022-10-05T21:10:03.385Z,98666.95
2022-10-05T21:12:33.838Z,98667.63
2022-10-05T21:15:04.458Z,98665.06
2022-10-05T21:17:34.356Z,98663.75
2022-10-05T21:20:01.771Z,98666.23
2022-10-05T21:22:29.173Z,98663.91
2022-10-05T21:24:56.346Z,98662.95
2022-10-05T21:27:24.468Z,98658.92
2022-10-05T21:29:51.841Z,98658.95
2022-10-05T21:32:19.103Z,98662.64
2022-10-05T21:34:46.461Z,98655.08
2022-10-05T21:37:15.033Z,98656.60
2022-10-05T21:39:42.487Z,98655.77
2022-10-05T21:42:09.638Z,98656.13
2022-10-05T21:44:37.343Z,98654.55
2022-10-05T21:47:07.054Z,98655.07
2022-10-05T21:49:35.902Z,98652.83
2022-10-05T21:52:05.405Z,98650.06
2022-10-05T21:54:34.807Z,98651.09
2022-10-05T21:57:02.877Z,98649.23
2022-10-05T21:59:33.854Z,98647.21
2022-10-05T22:02:01.887Z,98643.99
2022-10-05T22:04:29.862Z,98641.78
2022-10-05T22:06:57.506Z,98645.26
2022-10-05T22:09:25.187Z,98645.64
2022-10-05T22:11:53.541Z,98644.98
2022-10-05T22:14:21.149Z,98644.18
2022-10-05T22:16:49.351Z,98644.84
2022-10-05T22:19:19.556Z,98647.67
2022-10-05T22:21:47.172Z,98649.34
2022-10-05T22:24:14.883Z,98647.77
2022-10-05T22:26:48.721Z,98646.33
2022-10-05T22:29:17.471Z,98644.39
2022-10-05T22:31:48.786Z,98640.15
2022-10-05T22:34:18.010Z,98637.50
2022-10-05T22:36:47.588Z,98639.95
2022-10-05T22:39:18.113Z,98635.84
2022-10-05T22:41:46.481Z,98632.81
2022-10-05T22:44:14.878Z,98628.05
2022-10-05T22:46:43.708Z,98626.21
2022-10-05T22:49:11.314Z,98624.53
2022-10-05T22:51:39.911Z,98621.51
2022-10-05T22:54:07.897Z,98615.88
2022-10-05T22:56:35.836Z,98618.58
2022-10-05T22:59:03.954Z,98618.65
2022-10-05T23:01:31.658Z,98614.21
2022-10-05T23:03:59.209Z,98616.31
2022-10-05T23:06:26.863Z,98616.02
2022-10-05T23:08:54.743Z,98614.58
2022-10-05T23:11:25.589Z,98613.98
2022-10-05T23:13:58.394Z,98621.82
2022-10-05T23:16:28.550Z,98625.45
2022-10-05T23:18:57.304Z,98621.50
2022-10-05T23:21:28.820Z,98619.33
2022-10-05T23:23:56.929Z,98617.08
2022-10-05T23:26:25.896Z,98616.98
2022-10-05T23:28:54.825Z,98617.35
2022-10-05T23:31:29.427Z,98614.59
2022-10-05T23:33:57.823Z,98612.83
2022-10-05T23:36:31.129Z,98612.66
2022-10-05T23:39:00.218Z,98611.86
2022-10-05T23:41:28.269Z,98613.54
2022-10-05T23:43:56.343Z,98608.79
2022-10-05T23:46:24.538Z,98612.36
2022-10-05T23:48:53.392Z,98611.29
2022-10-05T23:51:21.160Z,98611.77
2022-10-05T23:53:49.129Z,98615.52
2022-10-05T23:56:16.912Z,98614.13
2022-10-05T23:58:46.088Z,98618.80
